sensor_id;sensor_type;location;lat;lon;timestamp;temperature;humidity
18506;DHT22;9382;53.242;10.438;2023-05-29T00:02:25;10.90;99.90
18506;DHT22;9382;53.242;10.438;2023-05-29T00:04:53;10.90;99.90
18506;DHT22;9382;53.242;10.438;2023-05-29T00:07:19;10.90;99.90
18506;DHT22;9382;53.242;10.438;2023-05-29T00:09:46;10.80;99.90
18506;DHT22;9382;53.242;10.438;2023-05-29T00:12:13;10.80;99.90
18506;DHT22;9382;53.242;10.438;2023-05-29T00:14:40;10.70;99.90
18506;DHT22;9382;53.242;10.438;2023-05-29T00:17:07;10.70;99.90
18506;DHT22;9382;53.242;10.438;2023-05-29T00:19:34;10.70;99.90
18506;DHT22;9382;53.242;10.438;2023-05-29T00:22:03;10.60;99.90
18506;DHT22;9382;53.242;10.438;2023-05-29T00:24:30;10.60;99.90
18506;DHT22;9382;53.242;10.438;2023-05-29T00:26:56;10.50;99.90
18506;DHT22;9382;53.242;10.438;2023-05-29T00:29:23;10.50;99.90
18506;DHT22;9382;53.242;10.438;2023-05-29T00:31:50;10.40;99.90
18506;DHT22;9382;53.242;10.438;2023-05-29T00:34:18;10.40;99.90
18506;DHT22;9382;53.242;10.438;2023-05-29T00:36:45;10.40;99.90
18506;DHT22;9382;53.242;10.438;2023-05-29T00:39:14;10.40;99.90
18506;DHT22;9382;53.242;10.438;2023-05-29T00:41:41;10.40;99.90
18506;DHT22;9382;53.242;10.438;2023-05-29T00:44:08;10.30;99.90
18506;DHT22;9382;53.242;10.438;2023-05-29T00:46:34;10.40;99.90
18506;DHT22;9382;53.242;10.438;2023-05-29T00:49:02;10.30;99.90
18506;DHT22;9382;53.242;10.438;2023-05-29T00:51:30;10.30;99.90
18506;DHT22;9382;53.242;10.438;2023-05-29T00:53:58;10.30;99.90
18506;DHT22;9382;53.242;10.438;2023-05-29T00:56:26;10.40;99.90
18506;DHT22;9382;53.242;10.438;2023-05-29T00:58:53;10.30;99.90
18506;DHT22;9382;53.242;10.438;2023-05-29T01:01:20;10.40;99.90
18506;DHT22;9382;53.242;10.438;2023-05-29T01:03:48;10.40;99.90
18506;DHT22;9382;53.242;10.438;2023-05-29T01:06:15;10.40;99.90
18506;DHT22;9382;53.242;10.438;2023-05-29T01:08:42;10.50;99.90
18506;DHT22;9382;53.242;10.438;2023-05-29T01:11:16;10.60;99.90
18506;DHT22;9382;53.242;10.438;2023-05-29T01:13:45;10.60;99.90
18506;DHT22;9382;53.242;10.438;2023-05-29T01:16:15;10.60;99.90
18506;DHT22;9382;53.242;10.438;2023-05-29T01:18:51;10.60;99.90
18506;DHT22;9382;53.242;10.438;2023-05-29T01:21:26;10.60;99.90
18506;DHT22;9382;53.242;10.438;2023-05-29T01:24:02;10.60;99.90
18506;DHT22;9382;53.242;10.438;2023-05-29T01:26:43;10.60;99.90
18506;DHT22;9382;53.242;10.438;2023-05-29T01:29:13;10.60;99.90
18506;DHT22;9382;53.242;10.438;2023-05-29T01:31:42;10.60;99.90
18506;DHT22;9382;53.242;10.438;2023-05-29T01:34:10;10.60;99.90
18506;DHT22;9382;53.242;10.438;2023-05-29T01:36:37;10.60;99.90
18506;DHT22;9382;53.242;10.438;2023-05-29T01:39:04;10.60;99.90
18506;DHT22;9382;53.242;10.438;2023-05-29T01:41:31;10.50;99.90
18506;DHT22;9382;53.242;10.438;2023-05-29T01:44:02;10.50;99.90
18506;DHT22;9382;53.242;10.438;2023-05-29T01:46:30;10.50;99.90
18506;DHT22;9382;53.242;10.438;2023-05-29T01:48:56;10.50;99.90
18506;DHT22;9382;53.242;10.438;2023-05-29T01:51:23;10.40;99.90
18506;DHT22;9382;53.242;10.438;2023-05-29T01:53:50;10.40;99.90
18506;DHT22;9382;53.242;10.438;2023-05-29T01:56:17;10.30;99.90
18506;DHT22;9382;53.242;10.438;2023-05-29T01:58:44;10.30;99.90
18506;DHT22;9382;53.242;10.438;2023-05-29T02:01:13;10.20;99.90
18506;DHT22;9382;53.242;10.438;2023-05-29T02:03:39;10.20;99.90
18506;DHT22;9382;53.242;10.438;2023-05-29T02:06:06;10.20;99.90
18506;DHT22;9382;53.242;10.438;2023-05-29T02:08:33;10.10;99.90
18506;DHT22;9382;53.242;10.438;2023-05-29T02:10:59;10.10;99.90
18506;DHT22;9382;53.242;10.438;2023-05-29T02:13:26;10.00;99.90
18506;DHT22;9382;53.242;10.438;2023-05-29T02:15:53;9.90;99.90
18506;DHT22;9382;53.242;10.438;2023-05-29T02:18:21;9.90;99.90
18506;DHT22;9382;53.242;10.438;2023-05-29T02:20:48;9.80;99.90
18506;DHT22;9382;53.242;10.438;2023-05-29T02:23:14;9.80;99.90
18506;DHT22;9382;53.242;10.438;2023-05-29T02:25:41;9.70;99.90
18506;DHT22;9382;53.242;10.438;2023-05-29T02:28:08;9.70;99.90
18506;DHT22;9382;53.242;10.438;2023-05-29T02:30:35;9.70;99.90
18506;DHT22;9382;53.242;10.438;2023-05-29T02:33:02;9.70;99.90
18506;DHT22;9382;53.242;10.438;2023-05-29T02:35:30;9.60;99.90
18506;DHT22;9382;53.242;10.438;2023-05-29T02:37:56;9.60;99.90
18506;DHT22;9382;53.242;10.438;2023-05-29T02:40:23;9.50;99.90
18506;DHT22;9382;53.242;10.438;2023-05-29T02:42:50;9.50;99.90
18506;DHT22;9382;53.242;10.438;2023-05-29T02:45:17;9.40;99.90
18506;DHT22;9382;53.242;10.438;2023-05-29T02:47:44;9.40;99.90
18506;DHT22;9382;53.242;10.438;2023-05-29T02:50:10;9.40;99.90
18506;DHT22;9382;53.242;10.438;2023-05-29T02:52:41;9.40;99.90
18506;DHT22;9382;53.242;10.438;2023-05-29T02:55:08;9.30;99.90
18506;DHT22;9382;53.242;10.438;2023-05-29T02:57:35;9.30;99.90
18506;DHT22;9382;53.242;10.438;2023-05-29T03:00:03;9.40;99.90
18506;DHT22;9382;53.242;10.438;2023-05-29T03:02:32;9.40;99.90
18506;DHT22;9382;53.242;10.438;2023-05-29T03:05:00;9.40;99.90
18506;DHT22;9382;53.242;10.438;2023-05-29T03:07:26;9.40;99.90
18506;DHT22;9382;53.242;10.438;2023-05-29T03:09:54;9.40;99.90
18506;DHT22;9382;53.242;10.438;2023-05-29T03:12:22;9.40;99.90
18506;DHT22;9382;53.242;10.438;2023-05-29T03:14:48;9.40;99.90
18506;DHT22;9382;53.242;10.438;2023-05-29T03:17:16;9.40;99.90
18506;DHT22;9382;53.242;10.438;2023-05-29T03:19:42;9.40;99.90
18506;DHT22;9382;53.242;10.438;2023-05-29T03:22:09;9.40;99.90
18506;DHT22;9382;53.242;10.438;2023-05-29T03:24:36;9.30;99.90
18506;DHT22;9382;53.242;10.438;2023-05-29T03:27:04;9.30;99.90
18506;DHT22;9382;53.242;10.438;2023-05-29T03:29:31;9.30;99.90
18506;DHT22;9382;53.242;10.438;2023-05-29T03:31:58;9.30;99.90
18506;DHT22;9382;53.242;10.438;2023-05-29T03:34:25;9.30;99.90
18506;DHT22;9382;53.242;10.438;2023-05-29T03:36:53;9.30;99.90
18506;DHT22;9382;53.242;10.438;2023-05-29T03:39:20;9.30;99.90
18506;DHT22;9382;53.242;10.438;2023-05-29T03:41:46;9.30;99.90
18506;DHT22;9382;53.242;10.438;2023-05-29T03:44:14;9.30;99.90
18506;DHT22;9382;53.242;10.438;2023-05-29T03:46:41;9.30;99.90
18506;DHT22;9382;53.242;10.438;2023-05-29T03:49:07;9.30;99.90
18506;DHT22;9382;53.242;10.438;2023-05-29T03:51:34;9.30;99.90
18506;DHT22;9382;53.242;10.438;2023-05-29T03:54:01;9.30;99.90
18506;DHT22;9382;53.242;10.438;2023-05-29T03:56:28;9.30;99.90
18506;DHT22;9382;53.242;10.438;2023-05-29T03:58:55;9.30;99.90
18506;DHT22;9382;53.242;10.438;2023-05-29T04:01:23;9.30;99.90
18506;DHT22;9382;53.242;10.438;2023-05-29T04:03:50;9.30;99.90
18506;DHT22;9382;53.242;10.438;2023-05-29T04:06:17;9.30;99.90
18506;DHT22;9382;53.242;10.438;2023-05-29T04:08:43;9.30;99.90
18506;DHT22;9382;53.242;10.438;2023-05-29T04:11:10;9.40;99.90
18506;DHT22;9382;53.242;10.438;2023-05-29T04:13:39;9.50;99.90
18506;DHT22;9382;53.242;10.438;2023-05-29T04:16:06;9.50;99.90
18506;DHT22;9382;53.242;10.438;2023-05-29T04:18:34;9.60;99.90
18506;DHT22;9382;53.242;10.438;2023-05-29T04:21:00;9.60;99.90
18506;DHT22;9382;53.242;10.438;2023-05-29T04:23:27;9.60;99.90
18506;DHT22;9382;53.242;10.438;2023-05-29T04:25:54;9.70;99.90
18506;DHT22;9382;53.242;10.438;2023-05-29T04:28:20;9.70;99.90
18506;DHT22;9382;53.242;10.438;2023-05-29T04:30:48;9.70;99.90
18506;DHT22;9382;53.242;10.438;2023-05-29T04:33:16;9.80;99.90
18506;DHT22;9382;53.242;10.438;2023-05-29T04:35:44;9.80;99.90
18506;DHT22;9382;53.242;10.438;2023-05-29T04:38:13;9.80;99.90
18506;DHT22;9382;53.242;10.438;2023-05-29T04:40:41;9.90;99.90
18506;DHT22;9382;53.242;10.438;2023-05-29T04:43:08;9.90;99.90
18506;DHT22;9382;53.242;10.438;2023-05-29T04:45:35;10.00;99.90
18506;DHT22;9382;53.242;10.438;2023-05-29T04:48:03;9.90;99.90
18506;DHT22;9382;53.242;10.438;2023-05-29T04:50:30;10.00;99.90
18506;DHT22;9382;53.242;10.438;2023-05-29T04:52:58;10.00;99.90
18506;DHT22;9382;53.242;10.438;2023-05-29T04:55:25;10.00;99.90
18506;DHT22;9382;53.242;10.438;2023-05-29T04:57:52;10.00;99.90
18506;DHT22;9382;53.242;10.438;2023-05-29T05:00:19;10.00;99.90
18506;DHT22;9382;53.242;10.438;2023-05-29T05:02:46;10.00;99.90
18506;DHT22;9382;53.242;10.438;2023-05-29T05:05:13;10.00;99.90
18506;DHT22;9382;53.242;10.438;2023-05-29T05:07:39;9.90;99.90
18506;DHT22;9382;53.242;10.438;2023-05-29T05:10:08;9.90;99.90
18506;DHT22;9382;53.242;10.438;2023-05-29T05:12:35;10.00;99.90
18506;DHT22;9382;53.242;10.438;2023-05-29T05:15:02;10.00;99.90
18506;DHT22;9382;53.242;10.438;2023-05-29T05:17:29;10.10;99.90
18506;DHT22;9382;53.242;10.438;2023-05-29T05:19:55;10.10;99.90
18506;DHT22;9382;53.242;10.438;2023-05-29T05:22:22;10.20;99.90
18506;DHT22;9382;53.242;10.438;2023-05-29T05:24:49;10.20;99.90
18506;DHT22;9382;53.242;10.438;2023-05-29T05:27:18;10.20;99.90
18506;DHT22;9382;53.242;10.438;2023-05-29T05:29:45;10.30;99.90
18506;DHT22;9382;53.242;10.438;2023-05-29T05:32:12;10.30;99.90
18506;DHT22;9382;53.242;10.438;2023-05-29T05:34:38;10.40;99.90
18506;DHT22;9382;53.242;10.438;2023-05-29T05:37:05;10.40;99.90
18506;DHT22;9382;53.242;10.438;2023-05-29T05:39:32;10.50;99.90
18506;DHT22;9382;53.242;10.438;2023-05-29T05:41:59;10.50;99.90
18506;DHT22;9382;53.242;10.438;2023-05-29T05:44:28;10.60;99.90
18506;DHT22;9382;53.242;10.438;2023-05-29T05:46:54;10.60;99.90
18506;DHT22;9382;53.242;10.438;2023-05-29T05:49:21;10.70;99.90
18506;DHT22;9382;53.242;10.438;2023-05-29T05:51:47;10.70;99.90
18506;DHT22;9382;53.242;10.438;2023-05-29T05:54:14;10.70;99.90
18506;DHT22;9382;53.242;10.438;2023-05-29T05:56:41;10.80;99.90
18506;DHT22;9382;53.242;10.438;2023-05-29T05:59:07;10.90;99.90
18506;DHT22;9382;53.242;10.438;2023-05-29T06:01:35;11.00;99.90
18506;DHT22;9382;53.242;10.438;2023-05-29T06:04:02;11.00;99.90
18506;DHT22;9382;53.242;10.438;2023-05-29T06:06:29;11.10;99.90
18506;DHT22;9382;53.242;10.438;2023-05-29T06:08:57;11.10;99.90
18506;DHT22;9382;53.242;10.438;2023-05-29T06:11:24;11.20;99.90
18506;DHT22;9382;53.242;10.438;2023-05-29T06:13:51;11.20;99.90
18506;DHT22;9382;53.242;10.438;2023-05-29T06:16:18;11.20;99.90
18506;DHT22;9382;53.242;10.438;2023-05-29T06:18:45;11.30;99.90
18506;DHT22;9382;53.242;10.438;2023-05-29T06:21:12;11.30;99.90
18506;DHT22;9382;53.242;10.438;2023-05-29T06:23:39;11.30;99.90
18506;DHT22;9382;53.242;10.438;2023-05-29T06:26:06;11.40;99.90
18506;DHT22;9382;53.242;10.438;2023-05-29T06:28:33;11.60;99.90
18506;DHT22;9382;53.242;10.438;2023-05-29T06:31:00;11.70;99.90
18506;DHT22;9382;53.242;10.438;2023-05-29T06:33:26;11.80;99.90
18506;DHT22;9382;53.242;10.438;2023-05-29T06:35:56;12.00;99.90
18506;DHT22;9382;53.242;10.438;2023-05-29T06:38:23;12.10;99.90
18506;DHT22;9382;53.242;10.438;2023-05-29T06:40:50;12.20;99.90
18506;DHT22;9382;53.242;10.438;2023-05-29T06:43:16;12.40;99.90
18506;DHT22;9382;53.242;10.438;2023-05-29T06:45:43;12.50;99.90
18506;DHT22;9382;53.242;10.438;2023-05-29T06:48:10;12.60;99.90
18506;DHT22;9382;53.242;10.438;2023-05-29T06:50:36;12.70;99.90
18506;DHT22;9382;53.242;10.438;2023-05-29T06:53:04;12.80;99.90
18506;DHT22;9382;53.242;10.438;2023-05-29T06:55:31;12.90;99.90
18506;DHT22;9382;53.242;10.438;2023-05-29T06:57:57;13.10;99.90
18506;DHT22;9382;53.242;10.438;2023-05-29T07:00:24;13.10;99.90
18506;DHT22;9382;53.242;10.438;2023-05-29T07:02:51;13.20;99.90
18506;DHT22;9382;53.242;10.438;2023-05-29T07:05:17;13.30;99.90
18506;DHT22;9382;53.242;10.438;2023-05-29T07:07:44;13.40;99.90
18506;DHT22;9382;53.242;10.438;2023-05-29T07:10:12;13.50;99.90
18506;DHT22;9382;53.242;10.438;2023-05-29T07:12:39;13.60;99.90
18506;DHT22;9382;53.242;10.438;2023-05-29T07:15:06;13.80;99.90
18506;DHT22;9382;53.242;10.438;2023-05-29T07:17:33;13.80;99.90
18506;DHT22;9382;53.242;10.438;2023-05-29T07:19:59;14.00;99.90
18506;DHT22;9382;53.242;10.438;2023-05-29T07:22:26;14.10;99.90
18506;DHT22;9382;53.242;10.438;2023-05-29T07:24:53;14.20;99.90
18506;DHT22;9382;53.242;10.438;2023-05-29T07:27:21;14.20;99.90
18506;DHT22;9382;53.242;10.438;2023-05-29T07:29:47;14.40;99.90
18506;DHT22;9382;53.242;10.438;2023-05-29T07:32:15;14.60;99.90
18506;DHT22;9382;53.242;10.438;2023-05-29T07:34:42;14.70;99.90
18506;DHT22;9382;53.242;10.438;2023-05-29T07:37:11;14.70;99.90
18506;DHT22;9382;53.242;10.438;2023-05-29T07:39:38;14.80;99.90
18506;DHT22;9382;53.242;10.438;2023-05-29T07:42:05;15.00;99.90
18506;DHT22;9382;53.242;10.438;2023-05-29T07:44:33;15.20;99.90
18506;DHT22;9382;53.242;10.438;2023-05-29T07:47:00;15.50;99.90
18506;DHT22;9382;53.242;10.438;2023-05-29T07:49:26;15.60;99.90
18506;DHT22;9382;53.242;10.438;2023-05-29T07:51:53;15.60;99.90
18506;DHT22;9382;53.242;10.438;2023-05-29T07:54:20;15.60;99.90
18506;DHT22;9382;53.242;10.438;2023-05-29T07:56:48;15.70;99.90
18506;DHT22;9382;53.242;10.438;2023-05-29T07:59:15;15.60;99.90
18506;DHT22;9382;53.242;10.438;2023-05-29T08:01:43;15.70;99.90
18506;DHT22;9382;53.242;10.438;2023-05-29T08:04:10;15.80;99.90
18506;DHT22;9382;53.242;10.438;2023-05-29T08:06:37;15.90;99.90
18506;DHT22;9382;53.242;10.438;2023-05-29T08:09:04;16.00;99.90
18506;DHT22;9382;53.242;10.438;2023-05-29T08:11:31;16.00;99.90
18506;DHT22;9382;53.242;10.438;2023-05-29T08:13:58;15.90;99.90
18506;DHT22;9382;53.242;10.438;2023-05-29T08:16:24;16.10;99.90
18506;DHT22;9382;53.242;10.438;2023-05-29T08:18:54;16.30;99.90
18506;DHT22;9382;53.242;10.438;2023-05-29T08:21:21;16.50;99.90
18506;DHT22;9382;53.242;10.438;2023-05-29T08:23:48;16.60;99.90
18506;DHT22;9382;53.242;10.438;2023-05-29T08:26:14;16.70;99.90
18506;DHT22;9382;53.242;10.438;2023-05-29T08:28:41;16.80;99.90
18506;DHT22;9382;53.242;10.438;2023-05-29T08:31:08;16.90;99.90
18506;DHT22;9382;53.242;10.438;2023-05-29T08:33:34;16.70;99.90
18506;DHT22;9382;53.242;10.438;2023-05-29T08:36:03;16.70;99.90
18506;DHT22;9382;53.242;10.438;2023-05-29T08:38:30;16.70;99.90
18506;DHT22;9382;53.242;10.438;2023-05-29T08:40:57;16.80;99.90
18506;DHT22;9382;53.242;10.438;2023-05-29T08:43:24;17.00;99.90
18506;DHT22;9382;53.242;10.438;2023-05-29T08:45:53;17.10;99.90
18506;DHT22;9382;53.242;10.438;2023-05-29T08:48:23;17.00;99.90
18506;DHT22;9382;53.242;10.438;2023-05-29T08:50:52;17.20;99.90
18506;DHT22;9382;53.242;10.438;2023-05-29T08:53:21;17.40;99.90
18506;DHT22;9382;53.242;10.438;2023-05-29T08:55:48;17.30;99.90
18506;DHT22;9382;53.242;10.438;2023-05-29T08:58:17;17.30;99.90
18506;DHT22;9382;53.242;10.438;2023-05-29T09:00:46;17.40;99.90
18506;DHT22;9382;53.242;10.438;2023-05-29T09:03:13;17.30;99.90
18506;DHT22;9382;53.242;10.438;2023-05-29T09:05:40;17.40;99.90
18506;DHT22;9382;53.242;10.438;2023-05-29T09:08:07;17.50;99.90
18506;DHT22;9382;53.242;10.438;2023-05-29T09:10:36;17.50;99.90
18506;DHT22;9382;53.242;10.438;2023-05-29T09:13:03;17.50;99.90
18506;DHT22;9382;53.242;10.438;2023-05-29T09:15:31;17.80;99.90
18506;DHT22;9382;53.242;10.438;2023-05-29T09:17:58;17.90;99.90
18506;DHT22;9382;53.242;10.438;2023-05-29T09:20:26;18.30;99.90
18506;DHT22;9382;53.242;10.438;2023-05-29T09:22:53;18.60;99.90
18506;DHT22;9382;53.242;10.438;2023-05-29T09:25:21;18.80;99.90
18506;DHT22;9382;53.242;10.438;2023-05-29T09:27:52;19.00;99.90
18506;DHT22;9382;53.242;10.438;2023-05-29T09:30:36;19.00;99.90
18506;DHT22;9382;53.242;10.438;2023-05-29T09:33:04;19.10;99.90
18506;DHT22;9382;53.242;10.438;2023-05-29T09:35:36;19.40;99.90
18506;DHT22;9382;53.242;10.438;2023-05-29T09:38:03;19.90;99.90
18506;DHT22;9382;53.242;10.438;2023-05-29T09:40:31;19.60;99.90
18506;DHT22;9382;53.242;10.438;2023-05-29T09:43:03;19.50;99.90
18506;DHT22;9382;53.242;10.438;2023-05-29T09:45:33;19.80;99.90
18506;DHT22;9382;53.242;10.438;2023-05-29T09:48:02;20.10;99.90
18506;DHT22;9382;53.242;10.438;2023-05-29T09:50:29;20.50;99.90
18506;DHT22;9382;53.242;10.438;2023-05-29T09:52:56;20.40;99.90
18506;DHT22;9382;53.242;10.438;2023-05-29T09:55:25;20.40;99.90
18506;DHT22;9382;53.242;10.438;2023-05-29T09:57:53;20.60;99.90
18506;DHT22;9382;53.242;10.438;2023-05-29T10:00:21;21.10;99.90
18506;DHT22;9382;53.242;10.438;2023-05-29T10:02:49;21.00;99.90
18506;DHT22;9382;53.242;10.438;2023-05-29T10:05:16;20.90;99.90
18506;DHT22;9382;53.242;10.438;2023-05-29T10:07:44;20.80;99.90
18506;DHT22;9382;53.242;10.438;2023-05-29T10:10:13;20.60;99.90
18506;DHT22;9382;53.242;10.438;2023-05-29T10:12:44;20.60;99.90
18506;DHT22;9382;53.242;10.438;2023-05-29T10:15:13;20.70;99.90
18506;DHT22;9382;53.242;10.438;2023-05-29T10:17:47;20.50;99.90
18506;DHT22;9382;53.242;10.438;2023-05-29T10:20:17;20.40;99.90
18506;DHT22;9382;53.242;10.438;2023-05-29T10:22:46;20.40;99.90
18506;DHT22;9382;53.242;10.438;2023-05-29T10:25:13;20.60;99.90
18506;DHT22;9382;53.242;10.438;2023-05-29T10:27:41;20.90;99.90
18506;DHT22;9382;53.242;10.438;2023-05-29T10:30:13;21.10;99.90
18506;DHT22;9382;53.242;10.438;2023-05-29T10:32:56;21.30;99.90
18506;DHT22;9382;53.242;10.438;2023-05-29T10:35:31;21.80;99.90
18506;DHT22;9382;53.242;10.438;2023-05-29T10:38:10;22.00;99.90
18506;DHT22;9382;53.242;10.438;2023-05-29T10:40:37;22.50;99.90
18506;DHT22;9382;53.242;10.438;2023-05-29T10:43:04;22.60;99.90
18506;DHT22;9382;53.242;10.438;2023-05-29T10:45:50;22.60;99.90
18506;DHT22;9382;53.242;10.438;2023-05-29T10:48:38;22.80;99.90
18506;DHT22;9382;53.242;10.438;2023-05-29T10:51:06;22.90;99.90
18506;DHT22;9382;53.242;10.438;2023-05-29T10:53:34;22.90;99.90
18506;DHT22;9382;53.242;10.438;2023-05-29T10:56:08;23.00;99.90
18506;DHT22;9382;53.242;10.438;2023-05-29T10:58:36;23.10;99.90
18506;DHT22;9382;53.242;10.438;2023-05-29T11:01:04;23.20;99.90
18506;DHT22;9382;53.242;10.438;2023-05-29T11:03:31;23.30;99.90
18506;DHT22;9382;53.242;10.438;2023-05-29T11:06:01;23.50;99.90
18506;DHT22;9382;53.242;10.438;2023-05-29T11:08:33;23.70;99.90
18506;DHT22;9382;53.242;10.438;2023-05-29T11:11:01;23.60;99.90
18506;DHT22;9382;53.242;10.438;2023-05-29T11:13:32;23.50;99.90
18506;DHT22;9382;53.242;10.438;2023-05-29T11:16:11;23.50;99.90
18506;DHT22;9382;53.242;10.438;2023-05-29T11:18:40;23.50;99.90
18506;DHT22;9382;53.242;10.438;2023-05-29T11:23:58;23.60;99.90
18506;DHT22;9382;53.242;10.438;2023-05-29T11:26:28;23.80;99.90
18506;DHT22;9382;53.242;10.438;2023-05-29T11:28:57;23.90;99.90
18506;DHT22;9382;53.242;10.438;2023-05-29T11:31:24;24.20;99.90
18506;DHT22;9382;53.242;10.438;2023-05-29T11:33:54;24.30;99.90
18506;DHT22;9382;53.242;10.438;2023-05-29T11:36:26;23.70;99.90
18506;DHT22;9382;53.242;10.438;2023-05-29T11:38:53;23.80;99.90
18506;DHT22;9382;53.242;10.438;2023-05-29T11:41:20;24.10;99.90
18506;DHT22;9382;53.242;10.438;2023-05-29T11:43:56;24.00;99.90
18506;DHT22;9382;53.242;10.438;2023-05-29T11:46:24;24.10;99.90
18506;DHT22;9382;53.242;10.438;2023-05-29T11:48:52;24.30;99.90
18506;DHT22;9382;53.242;10.438;2023-05-29T11:51:18;24.20;99.90
18506;DHT22;9382;53.242;10.438;2023-05-29T11:53:48;24.00;99.90
18506;DHT22;9382;53.242;10.438;2023-05-29T11:56:18;23.90;99.90
18506;DHT22;9382;53.242;10.438;2023-05-29T11:58:46;24.10;99.90
18506;DHT22;9382;53.242;10.438;2023-05-29T12:01:16;24.40;99.90
18506;DHT22;9382;53.242;10.438;2023-05-29T12:03:44;24.70;99.90
18506;DHT22;9382;53.242;10.438;2023-05-29T12:06:11;25.00;99.90
18506;DHT22;9382;53.242;10.438;2023-05-29T12:08:38;25.10;99.90
18506;DHT22;9382;53.242;10.438;2023-05-29T12:11:06;25.50;99.90
18506;DHT22;9382;53.242;10.438;2023-05-29T12:13:33;25.90;99.90
18506;DHT22;9382;53.242;10.438;2023-05-29T12:16:02;26.50;99.90
18506;DHT22;9382;53.242;10.438;2023-05-29T12:18:30;26.90;99.90
18506;DHT22;9382;53.242;10.438;2023-05-29T12:20:58;27.10;99.90
18506;DHT22;9382;53.242;10.438;2023-05-29T12:23:25;27.50;99.90
18506;DHT22;9382;53.242;10.438;2023-05-29T12:25:52;27.90;99.90
18506;DHT22;9382;53.242;10.438;2023-05-29T12:28:21;28.30;99.90
18506;DHT22;9382;53.242;10.438;2023-05-29T12:30:48;28.50;99.90
18506;DHT22;9382;53.242;10.438;2023-05-29T12:33:25;28.70;99.90
18506;DHT22;9382;53.242;10.438;2023-05-29T12:35:53;29.30;98.40
18506;DHT22;9382;53.242;10.438;2023-05-29T12:38:20;29.50;99.90
18506;DHT22;9382;53.242;10.438;2023-05-29T12:40:49;29.60;99.90
18506;DHT22;9382;53.242;10.438;2023-05-29T12:43:16;29.90;99.90
18506;DHT22;9382;53.242;10.438;2023-05-29T12:45:44;30.10;99.90
18506;DHT22;9382;53.242;10.438;2023-05-29T12:48:11;30.60;97.50
18506;DHT22;9382;53.242;10.438;2023-05-29T12:50:38;30.80;99.40
18506;DHT22;9382;53.242;10.438;2023-05-29T12:53:06;30.90;97.00
18506;DHT22;9382;53.242;10.438;2023-05-29T12:55:35;31.10;96.40
18506;DHT22;9382;53.242;10.438;2023-05-29T12:58:04;31.40;95.30
18506;DHT22;9382;53.242;10.438;2023-05-29T13:00:33;31.80;96.60
18506;DHT22;9382;53.242;10.438;2023-05-29T13:03:01;32.00;93.90
18506;DHT22;9382;53.242;10.438;2023-05-29T13:05:28;32.00;89.80
18506;DHT22;9382;53.242;10.438;2023-05-29T13:07:54;32.00;94.30
18506;DHT22;9382;53.242;10.438;2023-05-29T13:10:21;32.20;94.60
18506;DHT22;9382;53.242;10.438;2023-05-29T13:12:48;32.00;87.40
18506;DHT22;9382;53.242;10.438;2023-05-29T13:15:19;31.80;89.90
18506;DHT22;9382;53.242;10.438;2023-05-29T13:17:46;31.80;92.00
18506;DHT22;9382;53.242;10.438;2023-05-29T13:20:14;31.90;87.50
18506;DHT22;9382;53.242;10.438;2023-05-29T13:22:42;32.20;93.00
18506;DHT22;9382;53.242;10.438;2023-05-29T13:25:10;32.60;91.40
18506;DHT22;9382;53.242;10.438;2023-05-29T13:27:38;32.60;85.50
18506;DHT22;9382;53.242;10.438;2023-05-29T13:30:06;32.50;77.80
18506;DHT22;9382;53.242;10.438;2023-05-29T13:32:33;32.50;87.80
18506;DHT22;9382;53.242;10.438;2023-05-29T13:35:01;33.30;83.70
18506;DHT22;9382;53.242;10.438;2023-05-29T13:37:29;33.50;77.30
18506;DHT22;9382;53.242;10.438;2023-05-29T13:39:56;33.00;80.60
18506;DHT22;9382;53.242;10.438;2023-05-29T13:42:23;33.10;87.40
18506;DHT22;9382;53.242;10.438;2023-05-29T13:44:50;32.50;75.60
18506;DHT22;9382;53.242;10.438;2023-05-29T13:47:17;31.80;73.90
18506;DHT22;9382;53.242;10.438;2023-05-29T13:49:44;32.00;82.80
18506;DHT22;9382;53.242;10.438;2023-05-29T13:52:10;32.40;85.50
18506;DHT22;9382;53.242;10.438;2023-05-29T13:54:38;33.10;74.50
18506;DHT22;9382;53.242;10.438;2023-05-29T13:57:06;33.00;83.80
18506;DHT22;9382;53.242;10.438;2023-05-29T13:59:34;33.50;79.00
18506;DHT22;9382;53.242;10.438;2023-05-29T14:02:01;33.50;83.60
18506;DHT22;9382;53.242;10.438;2023-05-29T14:04:30;33.90;81.00
18506;DHT22;9382;53.242;10.438;2023-05-29T14:06:57;34.20;72.80
18506;DHT22;9382;53.242;10.438;2023-05-29T14:09:24;34.60;79.30
18506;DHT22;9382;53.242;10.438;2023-05-29T14:11:55;35.10;80.10
18506;DHT22;9382;53.242;10.438;2023-05-29T14:14:22;35.20;75.00
18506;DHT22;9382;53.242;10.438;2023-05-29T14:16:49;35.50;72.80
18506;DHT22;9382;53.242;10.438;2023-05-29T14:19:17;35.50;65.70
18506;DHT22;9382;53.242;10.438;2023-05-29T14:21:43;35.30;73.80
18506;DHT22;9382;53.242;10.438;2023-05-29T14:24:10;35.30;74.90
18506;DHT22;9382;53.242;10.438;2023-05-29T14:26:37;35.10;69.50
18506;DHT22;9382;53.242;10.438;2023-05-29T14:29:05;35.40;72.10
18506;DHT22;9382;53.242;10.438;2023-05-29T14:31:32;35.60;69.90
18506;DHT22;9382;53.242;10.438;2023-05-29T14:33:58;35.80;63.00
18506;DHT22;9382;53.242;10.438;2023-05-29T14:36:25;35.80;72.70
18506;DHT22;9382;53.242;10.438;2023-05-29T14:38:51;35.70;66.80
18506;DHT22;9382;53.242;10.438;2023-05-29T14:41:18;35.30;59.80
18506;DHT22;9382;53.242;10.438;2023-05-29T14:43:45;34.70;66.00
18506;DHT22;9382;53.242;10.438;2023-05-29T14:46:12;35.00;71.80
18506;DHT22;9382;53.242;10.438;2023-05-29T14:48:39;35.20;69.00
18506;DHT22;9382;53.242;10.438;2023-05-29T14:51:06;35.00;69.60
18506;DHT22;9382;53.242;10.438;2023-05-29T14:53:33;35.30;65.30
18506;DHT22;9382;53.242;10.438;2023-05-29T14:56:00;35.60;59.80
18506;DHT22;9382;53.242;10.438;2023-05-29T14:58:26;35.30;58.60
18506;DHT22;9382;53.242;10.438;2023-05-29T15:00:53;34.70;64.60
18506;DHT22;9382;53.242;10.438;2023-05-29T15:03:21;34.80;67.90
18506;DHT22;9382;53.242;10.438;2023-05-29T15:05:51;35.20;64.80
18506;DHT22;9382;53.242;10.438;2023-05-29T15:08:18;35.70;64.60
18506;DHT22;9382;53.242;10.438;2023-05-29T15:10:44;35.60;58.40
18506;DHT22;9382;53.242;10.438;2023-05-29T15:13:11;35.10;61.10
18506;DHT22;9382;53.242;10.438;2023-05-29T15:15:38;34.60;62.30
18506;DHT22;9382;53.242;10.438;2023-05-29T15:18:04;34.90;59.80
18506;DHT22;9382;53.242;10.438;2023-05-29T15:20:32;35.00;59.30
18506;DHT22;9382;53.242;10.438;2023-05-29T15:22:59;35.60;62.00
18506;DHT22;9382;53.242;10.438;2023-05-29T15:25:26;35.50;63.90
18506;DHT22;9382;53.242;10.438;2023-05-29T15:27:52;35.20;63.90
18506;DHT22;9382;53.242;10.438;2023-05-29T15:30:20;35.30;66.80
18506;DHT22;9382;53.242;10.438;2023-05-29T15:32:47;35.30;69.00
18506;DHT22;9382;53.242;10.438;2023-05-29T15:35:14;35.30;65.70
18506;DHT22;9382;53.242;10.438;2023-05-29T15:37:43;35.30;66.30
18506;DHT22;9382;53.242;10.438;2023-05-29T15:40:10;35.50;65.20